Time;durP1;ratioP1;P1;durP2;ratioP2;P2;SDS_P1;SDS_P2;PMS_P1;PMS_P2;Temp;Humidity;BMP_temperature;BMP_pressure;BME280_temperature;BME280_humidity;BME280_pressure;Samples;Min_cycle;Max_cycle;Signal;HPM_P1;HPM_P2
2022/06/10 00:01:48;;;;;;;1.15;0.50;;;24.90;49.70;;;;;;5044548;28;20471;-46
2022/06/10 00:04:13;;;;;;;1.10;0.52;;;24.90;49.70;;;;;;5044491;28;20721;-46
2022/06/10 00:06:39;;;;;;;1.67;0.60;;;24.90;49.70;;;;;;5044785;28;20033;-47
2022/06/10 00:09:05;;;;;;;2.30;0.63;;;24.90;49.60;;;;;;5044378;28;20040;-44
2022/06/10 00:11:31;;;;;;;2.05;0.82;;;24.90;49.70;;;;;;5042726;28;20025;-46
2022/06/10 00:13:56;;;;;;;1.67;0.57;;;25.00;49.60;;;;;;5044698;28;20041;-46
2022/06/10 00:16:22;;;;;;;2.20;0.52;;;24.90;49.60;;;;;;5044074;28;20607;-45
2022/06/10 00:18:49;;;;;;;1.00;0.40;;;24.90;49.60;;;;;;5044102;28;20104;-46
2022/06/10 00:21:17;;;;;;;1.02;0.57;;;24.90;49.60;;;;;;5043775;28;20104;-45
2022/06/10 00:23:42;;;;;;;2.80;0.43;;;24.90;49.50;;;;;;5042910;28;20083;-47
2022/06/10 00:26:10;;;;;;;0.82;0.50;;;24.90;49.50;;;;;;5040759;28;20048;-48
2022/06/10 00:28:36;;;;;;;1.15;0.60;;;24.90;49.50;;;;;;5042735;28;20021;-45
2022/06/10 00:31:02;;;;;;;0.88;0.40;;;24.90;49.60;;;;;;5044130;28;20788;-45
2022/06/10 00:33:29;;;;;;;1.45;0.60;;;24.90;49.60;;;;;;5044087;28;20103;-46
2022/06/10 00:35:55;;;;;;;0.95;0.40;;;24.90;49.60;;;;;;5043908;28;20128;-47
2022/06/10 00:38:21;;;;;;;0.95;0.50;;;24.90;49.60;;;;;;5043762;28;20052;-45
2022/06/10 00:40:51;;;;;;;1.17;0.45;;;24.90;49.70;;;;;;5042359;28;20021;-46
2022/06/10 00:43:21;;;;;;;1.92;0.60;;;24.90;49.60;;;;;;5043115;28;20021;-44
2022/06/10 00:45:55;;;;;;;1.35;0.60;;;24.90;49.60;;;;;;5043713;28;20025;-45
2022/06/10 00:48:32;;;;;;;1.42;0.50;;;24.90;49.60;;;;;;5043385;28;20787;-46
2022/06/10 00:51:02;;;;;;;1.40;0.60;;;24.90;49.70;;;;;;5043197;28;20779;-45
2022/06/10 00:53:33;;;;;;;1.00;0.60;;;24.80;49.50;;;;;;5043740;28;20029;-44
2022/06/10 00:56:01;;;;;;;1.35;0.55;;;24.90;49.60;;;;;;5041065;28;20047;-46
2022/06/10 00:58:40;;;;;;;0.88;0.50;;;24.90;49.60;;;;;;5042598;28;20025;-47
2022/06/10 01:01:07;;;;;;;1.65;0.60;;;24.90;49.60;;;;;;5041420;28;20481;-46
2022/06/10 01:03:33;;;;;;;1.27;0.57;;;24.90;49.50;;;;;;5042062;28;20771;-45
2022/06/10 01:06:00;;;;;;;1.10;0.50;;;24.80;49.50;;;;;;5043360;28;20032;-45
2022/06/10 01:08:26;;;;;;;1.33;0.60;;;24.80;49.40;;;;;;5042149;28;20060;-45
2022/06/10 01:11:41;;;;;;;1.95;0.80;;;24.80;49.50;;;;;;5043086;28;20037;-46
2022/06/10 01:14:15;;;;;;;0.80;0.43;;;24.80;49.50;;;;;;5039560;28;20134;-46
2022/06/10 01:16:58;;;;;;;2.45;1.08;;;24.80;49.40;;;;;;5042666;28;20025;-46
2022/06/10 01:19:58;;;;;;;1.50;0.85;;;24.80;49.50;;;;;;5041202;28;20017;-46
2022/06/10 01:23:01;;;;;;;2.20;0.63;;;24.80;49.50;;;;;;5040204;28;20020;-45
2022/06/10 01:25:33;;;;;;;1.55;0.75;;;24.80;49.50;;;;;;5042697;28;20501;-46
2022/06/10 01:28:38;;;;;;;0.90;0.57;;;24.80;49.50;;;;;;5040093;28;20040;-47
2022/06/10 01:31:15;;;;;;;1.58;0.60;;;24.80;49.50;;;;;;5041364;28;20432;-46
2022/06/10 01:34:07;;;;;;;1.48;0.47;;;24.80;49.60;;;;;;5024242;28;20460;-46
2022/06/10 01:36:46;;;;;;;2.17;0.70;;;24.80;49.50;;;;;;5037345;28;20563;-46
2022/06/10 01:39:28;;;;;;;1.73;0.80;;;24.80;49.50;;;;;;5041154;28;20020;-47
2022/06/10 01:42:28;;;;;;;1.40;0.73;;;24.80;49.60;;;;;;5042285;28;20033;-47
2022/06/10 01:44:56;;;;;;;1.70;0.70;;;24.80;49.60;;;;;;5042915;28;20773;-45
2022/06/10 01:47:35;;;;;;;1.45;0.70;;;24.80;49.50;;;;;;5041330;28;20093;-46
2022/06/10 01:50:09;;;;;;;1.45;0.73;;;24.80;49.50;;;;;;5039566;28;20036;-46
2022/06/10 01:52:44;;;;;;;1.13;0.55;;;24.70;49.50;;;;;;5040467;28;20055;-45
2022/06/10 01:55:18;;;;;;;1.40;0.85;;;24.80;49.50;;;;;;5042238;28;20123;-45
2022/06/10 01:57:53;;;;;;;0.85;0.40;;;24.80;49.40;;;;;;5041450;28;20021;-45
2022/06/10 02:00:23;;;;;;;1.30;0.70;;;24.80;49.50;;;;;;5042538;28;20075;-46
2022/06/10 02:03:28;;;;;;;1.13;0.70;;;24.80;49.40;;;;;;5040889;28;20074;-45
2022/06/10 02:06:11;;;;;;;1.50;0.77;;;24.80;49.40;;;;;;5042068;28;20040;-46
2022/06/10 02:08:44;;;;;;;1.17;0.60;;;24.80;49.40;;;;;;5041387;28;20620;-47
2022/06/10 02:11:16;;;;;;;1.60;0.63;;;24.80;49.40;;;;;;5041306;28;20025;-46
2022/06/10 02:13:44;;;;;;;1.50;0.60;;;24.80;49.50;;;;;;5042462;28;20556;-47
2022/06/10 02:16:17;;;;;;;0.88;0.55;;;24.80;49.50;;;;;;5041097;28;20040;-46
2022/06/10 02:18:59;;;;;;;2.35;1.05;;;24.70;49.50;;;;;;5041131;28;20021;-47
2022/06/10 02:21:35;;;;;;;1.27;0.70;;;24.70;49.50;;;;;;5043902;28;20025;-47
2022/06/10 02:24:17;;;;;;;1.15;0.50;;;24.70;49.50;;;;;;5046641;28;20428;-44
2022/06/10 02:26:46;;;;;;;1.20;0.77;;;24.70;49.50;;;;;;5043267;28;20124;-47
2022/06/10 02:29:18;;;;;;;1.50;0.70;;;24.70;49.50;;;;;;5046074;28;20056;-45
2022/06/10 02:31:54;;;;;;;1.80;0.87;;;24.70;49.50;;;;;;5046193;28;20025;-46
2022/06/10 02:34:20;;;;;;;1.30;0.57;;;24.70;49.40;;;;;;5046061;28;20313;-45
2022/06/10 02:37:09;;;;;;;0.80;0.50;;;24.70;49.40;;;;;;5044766;28;20107;-47
2022/06/10 02:39:49;;;;;;;1.88;0.80;;;24.70;49.50;;;;;;5044302;28;20556;-46
2022/06/10 02:42:27;;;;;;;1.23;0.70;;;24.70;49.40;;;;;;5045875;28;20104;-46
2022/06/10 02:45:09;;;;;;;1.25;0.60;;;24.70;49.50;;;;;;5044837;28;20024;-50
2022/06/10 02:47:46;;;;;;;1.48;0.70;;;24.70;49.40;;;;;;5044944;28;20592;-45
2022/06/10 02:50:14;;;;;;;1.33;0.60;;;24.70;49.40;;;;;;5045917;28;20017;-46
2022/06/10 02:52:41;;;;;;;0.77;0.55;;;24.70;49.40;;;;;;5045128;28;20021;-46
2022/06/10 02:55:16;;;;;;;1.48;0.63;;;24.70;49.50;;;;;;5045518;28;20053;-45
2022/06/10 03:01:12;;;;;;;1.65;0.77;;;24.70;49.40;;;;;;5045883;28;20098;-46
2022/06/10 03:04:13;;;;;;;1.20;0.63;;;24.70;49.60;;;;;;5042786;28;20017;-46
2022/06/10 03:06:57;;;;;;;1.20;0.70;;;24.70;49.50;;;;;;5042504;28;20044;-46
2022/06/10 03:09:56;;;;;;;1.25;0.60;;;24.70;49.50;;;;;;5044819;28;20048;-45
2022/06/10 03:12:37;;;;;;;1.65;0.70;;;24.70;49.50;;;;;;5043919;28;20041;-46
2022/06/10 03:15:13;;;;;;;1.95;0.68;;;24.70;49.60;;;;;;5044386;28;20029;-46
2022/06/10 03:17:42;;;;;;;2.17;0.70;;;24.60;49.40;;;;;;5044145;28;20104;-47
2022/06/10 03:20:13;;;;;;;1.10;0.50;;;24.70;49.50;;;;;;5045451;28;20044;-47
2022/06/10 03:23:12;;;;;;;0.80;0.50;;;24.70;49.50;;;;;;5042062;28;20572;-45
2022/06/10 03:26:00;;;;;;;1.25;0.60;;;24.60;49.40;;;;;;5044222;28;20040;-44
2022/06/10 03:28:44;;;;;;;1.05;0.70;;;24.70;49.50;;;;;;5043818;28;20045;-46
2022/06/10 03:31:15;;;;;;;1.60;0.85;;;24.70;49.40;;;;;;5043169;28;20037;-45
2022/06/10 03:33:49;;;;;;;1.30;0.70;;;24.70;49.50;;;;;;5044525;28;20039;-46
2022/06/10 03:36:19;;;;;;;1.73;0.80;;;24.60;49.30;;;;;;5045304;28;20039;-47
2022/06/10 03:38:48;;;;;;;1.35;0.70;;;24.60;49.30;;;;;;5045216;28;20029;-45
2022/06/10 03:41:26;;;;;;;1.42;0.70;;;24.70;49.50;;;;;;5042646;28;20032;-44
2022/06/10 03:43:54;;;;;;;1.75;0.70;;;24.60;49.30;;;;;;5041839;28;20108;-46
2022/06/10 03:46:23;;;;;;;0.80;0.50;;;24.70;49.40;;;;;;5044685;28;20057;-46
2022/06/10 03:48:51;;;;;;;2.00;0.80;;;24.60;49.30;;;;;;5041582;28;20038;-46
2022/06/10 03:51:18;;;;;;;1.73;0.75;;;24.60;49.30;;;;;;5044900;28;20021;-45
2022/06/10 03:53:45;;;;;;;1.55;0.73;;;24.60;49.30;;;;;;5043323;28;20444;-45
2022/06/10 03:56:11;;;;;;;2.65;0.88;;;24.60;49.30;;;;;;5043810;28;20670;-47
2022/06/10 03:58:38;;;;;;;2.00;0.77;;;24.70;49.40;;;;;;5044717;28;20090;-45
2022/06/10 04:01:04;;;;;;;2.45;0.80;;;24.60;49.30;;;;;;5044150;28;20108;-45
2022/06/10 04:03:30;;;;;;;1.23;0.70;;;24.60;49.30;;;;;;5044789;28;20013;-46
2022/06/10 04:05:56;;;;;;;1.52;0.77;;;24.70;49.40;;;;;;5044922;28;20037;-44
2022/06/10 04:08:22;;;;;;;1.02;0.70;;;24.70;49.30;;;;;;5044379;28;20060;-46
2022/06/10 04:10:48;;;;;;;1.55;0.80;;;24.60;49.20;;;;;;5044528;28;20051;-46
2022/06/10 04:13:17;;;;;;;1.40;0.65;;;24.60;49.30;;;;;;5044702;28;20056;-46
2022/06/10 04:15:44;;;;;;;2.13;0.88;;;24.60;49.20;;;;;;5044433;28;20025;-44
2022/06/10 04:18:10;;;;;;;1.45;0.70;;;24.60;49.30;;;;;;5042729;28;20112;-47
2022/06/10 04:20:38;;;;;;;1.52;0.60;;;24.60;49.20;;;;;;5042350;28;20029;-45
2022/06/10 04:23:05;;;;;;;1.20;0.65;;;24.70;49.40;;;;;;5044510;28;20108;-47
2022/06/10 04:25:33;;;;;;;1.35;0.60;;;24.60;49.20;;;;;;5044319;28;20576;-46
2022/06/10 04:27:59;;;;;;;1.13;0.60;;;24.60;49.20;;;;;;5042640;28;20457;-46
2022/06/10 04:30:32;;;;;;;2.03;0.80;;;24.60;49.20;;;;;;5043721;28;20099;-45
2022/06/10 04:32:59;;;;;;;1.25;0.70;;;24.60;49.30;;;;;;5043613;28;20013;-46
2022/06/10 04:35:26;;;;;;;1.25;0.70;;;24.60;49.20;;;;;;5042418;28;20014;-44
2022/06/10 04:37:55;;;;;;;1.08;0.60;;;24.60;49.30;;;;;;5043921;28;20559;-45
2022/06/10 04:40:24;;;;;;;1.63;0.80;;;24.60;49.20;;;;;;5043493;28;20060;-45
2022/06/10 04:42:52;;;;;;;1.08;0.60;;;24.60;49.20;;;;;;5042082;28;20013;-47
2022/06/10 04:45:21;;;;;;;1.27;0.70;;;24.60;49.20;;;;;;5043368;28;20108;-46
2022/06/10 04:47:47;;;;;;;1.80;0.90;;;24.60;49.20;;;;;;5041242;28;20052;-46
2022/06/10 04:50:15;;;;;;;1.08;0.80;;;24.60;49.50;;;;;;5042626;28;20028;-47
2022/06/10 04:52:41;;;;;;;1.95;0.90;;;24.60;49.70;;;;;;5041993;28;20100;-47
2022/06/10 04:55:08;;;;;;;3.38;1.05;;;24.60;50.10;;;;;;5043304;28;20518;-47
2022/06/10 04:57:35;;;;;;;3.65;0.98;;;24.60;50.20;;;;;;5042232;28;20025;-46
2022/06/10 05:00:02;;;;;;;2.97;1.23;;;24.60;50.40;;;;;;5040272;28;20024;-46
2022/06/10 05:02:28;;;;;;;4.30;1.30;;;24.60;50.60;;;;;;5042559;28;20025;-46
2022/06/10 05:04:54;;;;;;;5.03;1.50;;;24.70;50.60;;;;;;5042988;28;20050;-45
2022/06/10 05:07:20;;;;;;;3.00;1.23;;;24.60;50.90;;;;;;5042311;28;20459;-46
2022/06/10 05:09:46;;;;;;;4.68;1.25;;;24.60;51.10;;;;;;5040645;28;20025;-46
2022/06/10 05:12:11;;;;;;;3.35;1.20;;;24.60;51.40;;;;;;5041194;28;20043;-45
2022/06/10 05:14:37;;;;;;;5.10;1.40;;;24.60;51.20;;;;;;5041835;28;20554;-44
2022/06/10 05:17:04;;;;;;;2.97;1.00;;;24.70;51.60;;;;;;5041987;28;20032;-45
2022/06/10 05:19:30;;;;;;;2.22;1.10;;;24.70;51.60;;;;;;5041717;28;20025;-46
2022/06/10 05:21:57;;;;;;;2.75;0.88;;;24.80;51.30;;;;;;5041894;28;20021;-45
2022/06/10 05:24:23;;;;;;;2.85;1.25;;;24.90;50.90;;;;;;5038521;28;20028;-46
2022/06/10 05:26:49;;;;;;;2.47;0.88;;;25.00;50.60;;;;;;5040970;28;20649;-46
2022/06/10 05:29:14;;;;;;;1.83;0.80;;;25.00;50.40;;;;;;5041843;28;20029;-45
2022/06/10 05:31:40;;;;;;;2.65;0.90;;;25.00;50.30;;;;;;5040754;28;20049;-45
2022/06/10 05:37:01;;;;;;;1.95;0.88;;;25.00;50.20;;;;;;5051059;28;20116;-46
2022/06/10 05:39:27;;;;;;;2.15;0.68;;;25.00;50.00;;;;;;5041214;28;20112;-45
2022/06/10 05:42:04;;;;;;;2.50;1.00;;;25.00;49.90;;;;;;5040468;28;20036;-46
2022/06/10 05:44:31;;;;;;;1.67;0.70;;;25.00;49.80;;;;;;5038066;28;20504;-47
2022/06/10 05:46:57;;;;;;;1.85;0.70;;;25.00;49.80;;;;;;5042152;28;20110;-47
2022/06/10 05:49:23;;;;;;;2.47;0.70;;;25.00;49.80;;;;;;5039241;28;20037;-46
2022/06/10 05:51:49;;;;;;;3.10;0.80;;;25.00;49.80;;;;;;5040906;28;20508;-46
2022/06/10 05:54:16;;;;;;;2.60;1.10;;;25.00;49.90;;;;;;5042969;28;20025;-47
2022/06/10 05:56:45;;;;;;;4.40;1.08;;;25.00;50.00;;;;;;5044905;28;20509;-46
2022/06/10 05:59:11;;;;;;;3.85;1.17;;;25.10;50.20;;;;;;5045595;28;20029;-48
2022/06/10 06:01:37;;;;;;;5.57;1.15;;;25.00;50.10;;;;;;5046847;28;20469;-47
2022/06/10 06:04:03;;;;;;;4.15;1.50;;;25.10;50.30;;;;;;5047491;28;20021;-46
2022/06/10 06:06:29;;;;;;;3.47;1.00;;;25.10;50.90;;;;;;5047351;28;20350;-47
2022/06/10 06:08:55;;;;;;;3.35;1.02;;;25.10;50.20;;;;;;5046974;28;20025;-46
2022/06/10 06:11:21;;;;;;;3.83;1.27;;;25.10;50.20;;;;;;5046711;28;20055;-47
2022/06/10 06:13:47;;;;;;;5.15;1.20;;;25.10;50.30;;;;;;5033848;28;20036;-47
2022/06/10 06:16:15;;;;;;;3.38;1.00;;;25.10;50.30;;;;;;5027782;28;20040;-46
2022/06/10 06:18:41;;;;;;;2.08;0.80;;;25.10;50.30;;;;;;5034781;28;20753;-46
2022/06/10 06:21:07;;;;;;;3.25;1.17;;;25.10;50.30;;;;;;5045866;28;20021;-47
2022/06/10 06:23:33;;;;;;;2.97;1.23;;;25.10;50.20;;;;;;5044597;28;20428;-47
2022/06/10 06:25:59;;;;;;;3.58;1.10;;;25.10;50.20;;;;;;5045277;28;20029;-47
2022/06/10 06:28:26;;;;;;;2.58;0.98;;;25.10;50.30;;;;;;5044342;28;20500;-47
2022/06/10 06:30:51;;;;;;;2.88;1.00;;;25.10;50.20;;;;;;5045815;28;20512;-46
2022/06/10 06:33:17;;;;;;;3.72;1.10;;;25.10;50.10;;;;;;5045864;28;20083;-47
2022/06/10 06:35:50;;;;;;;4.10;1.10;;;25.10;50.20;;;;;;5042423;28;21947;-47
2022/06/10 06:38:16;;;;;;;2.33;0.90;;;25.10;50.00;;;;;;5025956;28;20060;-46
2022/06/10 06:40:43;;;;;;;2.90;1.02;;;25.10;50.00;;;;;;5038216;28;20044;-47
2022/06/10 06:43:11;;;;;;;3.20;1.00;;;25.10;50.30;;;;;;5025128;28;20033;-47
2022/06/10 06:45:38;;;;;;;2.75;0.82;;;25.10;50.30;;;;;;5025745;28;20096;-47
2022/06/10 06:48:07;;;;;;;2.78;1.05;;;25.10;50.10;;;;;;5032996;28;20064;-46
2022/06/10 06:50:35;;;;;;;2.92;1.08;;;25.10;50.10;;;;;;5042912;28;20025;-48
2022/06/10 06:53:01;;;;;;;2.20;1.13;;;25.10;50.00;;;;;;5025267;28;20033;-46
2022/06/10 06:55:27;;;;;;;2.53;1.10;;;25.10;50.00;;;;;;5026074;28;20018;-47
2022/06/10 06:57:53;;;;;;;2.15;1.10;;;25.10;49.80;;;;;;5038680;28;20083;-48
2022/06/10 07:00:21;;;;;;;2.30;0.85;;;25.10;49.80;;;;;;5046418;28;20111;-48
2022/06/10 07:02:47;;;;;;;2.50;1.08;;;25.10;49.70;;;;;;5046156;28;20044;-47
2022/06/10 07:05:13;;;;;;;1.85;1.00;;;25.10;49.80;;;;;;5045692;28;20072;-46
2022/06/10 07:07:40;;;;;;;1.63;0.77;;;25.10;49.80;;;;;;5045072;28;20503;-48
2022/06/10 07:10:07;;;;;;;2.15;1.00;;;25.10;49.80;;;;;;5043444;28;20104;-48
2022/06/10 07:12:33;;;;;;;2.55;0.80;;;25.10;49.70;;;;;;5044398;28;20091;-48
2022/06/10 07:14:59;;;;;;;2.28;0.90;;;25.10;49.70;;;;;;5039381;28;20763;-46
2022/06/10 07:17:25;;;;;;;1.77;1.00;;;25.10;49.70;;;;;;5028222;28;20083;-46
2022/06/10 07:19:52;;;;;;;1.70;0.90;;;25.10;49.70;;;;;;5026278;28;20051;-46
2022/06/10 07:22:18;;;;;;;2.72;0.85;;;25.10;49.70;;;;;;5025959;28;20071;-45
2022/06/10 07:24:44;;;;;;;2.22;1.05;;;25.10;49.70;;;;;;5026570;28;20142;-45
2022/06/10 07:27:11;;;;;;;2.33;0.95;;;25.10;49.70;;;;;;5031335;28;20531;-44
2022/06/10 07:29:37;;;;;;;2.65;0.90;;;25.10;49.70;;;;;;5043506;28;20497;-45
2022/06/10 07:32:03;;;;;;;1.48;0.77;;;25.10;49.60;;;;;;5042682;28;20036;-45
2022/06/10 07:34:29;;;;;;;1.38;0.70;;;25.10;49.60;;;;;;5029650;28;20030;-46
2022/06/10 07:36:54;;;;;;;2.70;1.17;;;25.10;49.60;;;;;;5044814;28;20593;-45
2022/06/10 07:39:20;;;;;;;1.67;0.80;;;25.00;49.60;;;;;;5029701;28;20712;-45
2022/06/10 07:42:00;;;;;;;1.75;0.88;;;25.00;49.50;;;;;;5027595;28;20044;-46
2022/06/10 07:44:37;;;;;;;2.17;1.05;;;25.10;49.50;;;;;;5025719;28;20028;-48
2022/06/10 07:47:11;;;;;;;2.80;0.98;;;25.00;49.40;;;;;;5025001;28;20409;-44
2022/06/10 07:49:38;;;;;;;1.42;0.70;;;25.00;49.50;;;;;;5024455;28;20064;-48
2022/06/10 07:52:05;;;;;;;1.98;1.13;;;25.00;49.50;;;;;;5024923;28;20030;-48
2022/06/10 07:54:33;;;;;;;1.25;0.63;;;25.00;49.40;;;;;;5025125;28;20436;-46
2022/06/10 07:57:00;;;;;;;1.42;0.70;;;25.00;49.50;;;;;;5028982;28;20493;-45
2022/06/10 07:59:27;;;;;;;1.70;0.60;;;25.00;49.50;;;;;;5044973;28;20067;-44
2022/06/10 08:01:53;;;;;;;2.03;0.93;;;25.00;49.50;;;;;;5045064;28;20032;-45
2022/06/10 08:04:20;;;;;;;1.83;1.10;;;25.00;49.50;;;;;;5044718;28;20017;-45
2022/06/10 08:06:47;;;;;;;2.28;0.90;;;25.00;49.50;;;;;;5044093;28;20262;-46
2022/06/10 08:09:14;;;;;;;2.58;0.90;;;25.00;49.50;;;;;;5043018;28;20032;-45
2022/06/10 08:11:40;;;;;;;3.20;1.27;;;25.00;49.50;;;;;;5042478;28;20488;-44
2022/06/10 08:14:08;;;;;;;3.88;1.27;;;25.00;49.50;;;;;;5024314;28;20471;-45
2022/06/10 08:16:36;;;;;;;5.70;1.20;;;25.00;49.40;;;;;;5024194;28;20156;-45
2022/06/10 08:19:02;;;;;;;6.10;1.17;;;25.00;49.40;;;;;;5023410;28;20113;-45
2022/06/10 08:24:13;;;;;;;2.75;0.90;;;25.00;49.50;;;;;;5022276;28;20142;-44
2022/06/10 08:26:39;;;;;;;1.63;0.80;;;25.00;49.50;;;;;;5026068;28;20021;-46
2022/06/10 08:29:07;;;;;;;2.03;0.90;;;25.00;49.50;;;;;;5043059;28;20039;-45
2022/06/10 08:31:33;;;;;;;2.50;1.10;;;25.00;49.40;;;;;;5043538;28;20039;-46
2022/06/10 08:33:59;;;;;;;2.03;0.90;;;24.90;49.50;;;;;;5043976;28;20064;-45
2022/06/10 08:36:25;;;;;;;2.25;0.90;;;24.90;49.50;;;;;;5043350;28;20048;-46
2022/06/10 08:38:51;;;;;;;2.92;0.90;;;24.90;49.50;;;;;;5042744;28;20029;-46
2022/06/10 08:41:46;;;;;;;2.30;1.00;;;24.90;49.50;;;;;;5042198;28;20032;-46
2022/06/10 08:44:34;;;;;;;1.95;0.90;;;24.90;49.50;;;;;;5042792;28;20028;-45
2022/06/10 08:47:11;;;;;;;2.30;0.90;;;24.90;49.50;;;;;;5043163;28;20094;-45
2022/06/10 08:49:56;;;;;;;1.50;0.82;;;24.90;49.60;;;;;;5043459;28;20618;-46
2022/06/10 08:52:27;;;;;;;1.25;0.80;;;24.90;49.60;;;;;;5026263;28;20058;-44
2022/06/10 08:54:53;;;;;;;2.08;0.82;;;24.90;49.60;;;;;;5023596;28;20033;-45
2022/06/10 08:57:35;;;;;;;1.77;0.90;;;24.90;49.60;;;;;;5022872;28;20038;-44
2022/06/10 09:00:04;;;;;;;1.27;0.80;;;24.80;49.60;;;;;;5023477;28;20018;-46
2022/06/10 09:02:31;;;;;;;2.67;1.20;;;24.90;49.60;;;;;;5023453;28;20334;-47
2022/06/10 09:05:20;;;;;;;2.50;1.10;;;24.90;49.60;;;;;;5023594;28;20018;-48
2022/06/10 09:07:55;;;;;;;2.25;1.20;;;24.90;49.60;;;;;;5023060;28;20029;-47
2022/06/10 09:10:32;;;;;;;1.70;0.82;;;24.90;49.70;;;;;;5022786;28;20045;-46
2022/06/10 09:13:13;;;;;;;2.33;1.10;;;24.80;49.70;;;;;;5031429;28;20041;-46
2022/06/10 09:15:51;;;;;;;2.50;0.90;;;24.80;49.70;;;;;;5033632;28;20028;-45
2022/06/10 09:18:28;;;;;;;1.65;0.77;;;24.80;49.60;;;;;;5042582;28;20032;-47
2022/06/10 09:21:01;;;;;;;2.72;1.10;;;24.80;49.70;;;;;;5038384;28;20032;-45
2022/06/10 09:23:44;;;;;;;1.70;1.00;;;24.90;49.80;;;;;;5023062;28;20033;-47
2022/06/10 09:26:30;;;;;;;1.70;0.90;;;24.80;49.70;;;;;;5027108;28;20025;-47
2022/06/10 09:28:56;;;;;;;2.40;1.13;;;24.80;49.70;;;;;;5027725;28;20117;-47
2022/06/10 09:31:53;;;;;;;3.15;1.10;;;24.80;49.70;;;;;;5023227;28;20171;-47
2022/06/10 09:34:42;;;;;;;1.92;0.85;;;24.80;49.80;;;;;;5018739;28;20589;-46
2022/06/10 09:37:31;;;;;;;1.77;0.80;;;24.80;49.80;;;;;;5030689;28;20119;-44
2022/06/10 09:43:36;;;;;;;1.73;0.88;;;24.80;49.80;;;;;;5022956;28;20024;-45
2022/06/10 09:46:16;;;;;;;2.33;1.27;;;24.80;49.80;;;;;;5021469;28;20079;-47
2022/06/10 09:49:01;;;;;;;2.70;0.90;;;24.80;49.90;;;;;;5022432;28;20260;-45
2022/06/10 09:51:48;;;;;;;2.70;1.30;;;24.80;49.90;;;;;;5031426;28;20025;-45
2022/06/10 09:54:29;;;;;;;1.88;1.00;;;24.80;49.80;;;;;;5036958;28;20040;-47
2022/06/10 09:57:16;;;;;;;2.65;1.40;;;24.70;49.90;;;;;;5040975;28;20025;-46
2022/06/10 09:59:51;;;;;;;2.20;1.25;;;24.70;49.90;;;;;;5022507;28;20084;-47
2022/06/10 10:02:20;;;;;;;2.58;1.25;;;24.70;50.00;;;;;;5022532;28;20039;-47
2022/06/10 10:05:01;;;;;;;2.03;1.20;;;24.70;49.90;;;;;;5023509;28;20631;-47
2022/06/10 10:07:47;;;;;;;2.70;1.15;;;24.70;49.90;;;;;;5037242;28;20029;-46
2022/06/10 10:10:46;;;;;;;2.35;1.35;;;24.70;49.90;;;;;;5021030;28;20045;-46
2022/06/10 10:13:37;;;;;;;3.78;1.27;;;24.70;49.90;;;;;;5036599;28;20041;-46
2022/06/10 10:16:24;;;;;;;2.85;1.30;;;24.70;50.00;;;;;;5029605;28;20033;-46
2022/06/10 10:19:14;;;;;;;2.83;1.20;;;24.70;49.90;;;;;;5023185;28;20056;-47
2022/06/10 10:21:50;;;;;;;3.08;1.30;;;24.70;50.00;;;;;;5023429;28;20224;-46
2022/06/10 10:24:24;;;;;;;2.40;1.25;;;24.70;50.00;;;;;;5040362;28;20131;-48
2022/06/10 10:26:51;;;;;;;3.42;1.50;;;24.70;50.70;;;;;;5035772;28;20033;-46
2022/06/10 10:29:31;;;;;;;2.67;1.40;;;24.70;50.00;;;;;;5030455;28;20208;-46
2022/06/10 10:32:12;;;;;;;2.30;1.48;;;24.70;50.00;;;;;;5022849;28;20480;-45
2022/06/10 10:34:41;;;;;;;2.10;1.30;;;24.70;50.20;;;;;;5042800;28;20119;-49
2022/06/10 10:37:39;;;;;;;2.88;1.55;;;24.70;50.00;;;;;;5042211;28;20163;-47
2022/06/10 10:40:14;;;;;;;1.90;1.20;;;24.70;50.00;;;;;;5039232;28;20060;-47
2022/06/10 10:42:43;;;;;;;2.35;1.40;;;24.70;50.00;;;;;;5042354;28;20110;-46
2022/06/10 10:45:21;;;;;;;2.45;1.35;;;24.70;50.00;;;;;;5044990;28;20048;-47
2022/06/10 10:47:55;;;;;;;3.45;1.58;;;24.70;50.00;;;;;;5044539;28;20025;-46
2022/06/10 10:50:50;;;;;;;2.70;1.40;;;24.60;50.00;;;;;;5046172;28;20393;-47
2022/06/10 10:53:38;;;;;;;3.13;1.40;;;24.60;50.00;;;;;;5031344;28;20556;-46
2022/06/10 10:56:05;;;;;;;2.08;1.25;;;24.60;50.10;;;;;;5044099;28;20033;-47
2022/06/10 10:58:35;;;;;;;4.07;2.10;;;24.70;50.20;;;;;;5030732;28;20529;-46
2022/06/10 11:01:06;;;;;;;2.42;1.30;;;24.70;50.20;;;;;;5041083;28;20398;-45
2022/06/10 11:03:45;;;;;;;2.78;1.40;;;24.60;50.10;;;;;;5043442;28;20025;-47
2022/06/10 11:06:31;;;;;;;3.17;1.90;;;24.70;50.20;;;;;;5024672;28;20353;-47
2022/06/10 11:09:00;;;;;;;3.17;1.73;;;24.60;50.10;;;;;;5025313;28;20136;-47
2022/06/10 11:11:31;;;;;;;3.53;1.75;;;24.60;50.10;;;;;;5026123;28;20041;-47
2022/06/10 11:14:04;;;;;;;2.10;1.33;;;24.70;50.20;;;;;;5027051;28;20045;-47
2022/06/10 11:16:39;;;;;;;2.15;1.20;;;24.60;50.10;;;;;;5023954;28;20060;-48
2022/06/10 11:19:20;;;;;;;2.33;1.48;;;24.60;50.10;;;;;;5025447;28;20057;-47
2022/06/10 11:22:06;;;;;;;2.38;1.20;;;24.60;50.40;;;;;;5016359;28;20021;-47
2022/06/10 11:24:40;;;;;;;2.17;1.30;;;24.60;50.10;;;;;;5025236;28;20017;-48
2022/06/10 11:27:35;;;;;;;2.45;1.45;;;24.60;50.10;;;;;;5026160;28;20047;-47
2022/06/10 11:30:10;;;;;;;2.20;1.27;;;24.60;50.10;;;;;;5027452;28;20528;-47
2022/06/10 11:32:40;;;;;;;2.05;1.10;;;24.60;50.10;;;;;;5045623;28;20021;-46
2022/06/10 11:35:31;;;;;;;2.42;1.38;;;24.60;50.10;;;;;;5040716;28;20487;-46
2022/06/10 11:38:08;;;;;;;2.38;1.30;;;24.60;50.10;;;;;;5028528;28;20104;-46
2022/06/10 11:40:46;;;;;;;2.40;1.38;;;24.60;50.10;;;;;;5043524;28;20028;-46
2022/06/10 11:43:33;;;;;;;1.90;1.10;;;24.60;50.10;;;;;;5039262;28;20029;-47
2022/06/10 11:46:09;;;;;;;2.17;1.30;;;24.60;50.10;;;;;;5044839;28;20697;-49
2022/06/10 11:48:54;;;;;;;1.90;1.17;;;24.60;50.00;;;;;;5043851;28;20485;-47
2022/06/10 11:51:33;;;;;;;2.60;1.40;;;24.60;50.00;;;;;;5036673;28;20044;-47
2022/06/10 11:54:20;;;;;;;2.60;1.30;;;24.60;50.10;;;;;;5023499;28;20112;-47
2022/06/10 12:00:20;;;;;;;1.85;1.27;;;24.60;50.10;;;;;;5026191;28;20033;-46
2022/06/10 12:03:08;;;;;;;2.25;1.30;;;24.60;50.00;;;;;;5042231;28;20010;-48
2022/06/10 12:05:51;;;;;;;1.85;1.20;;;24.60;50.10;;;;;;5043886;28;20035;-47
2022/06/10 12:08:42;;;;;;;2.78;1.45;;;24.60;50.00;;;;;;5043741;28;20586;-48
2022/06/10 12:11:13;;;;;;;2.75;1.33;;;24.60;50.10;;;;;;5044682;28;20017;-48
2022/06/10 12:13:47;;;;;;;2.10;1.30;;;24.60;50.10;;;;;;5042591;28;20029;-47
2022/06/10 12:16:14;;;;;;;2.15;1.30;;;24.60;50.00;;;;;;5029148;28;20103;-45
2022/06/10 12:18:46;;;;;;;2.63;1.30;;;24.60;50.00;;;;;;5023907;28;20195;-47
2022/06/10 12:21:17;;;;;;;;;;;24.60;50.00;;;;;;5023524;28;20037;-46
2022/06/10 12:23:47;;;;;;;2.05;1.10;;;24.60;50.00;;;;;;5027699;28;20631;-47
2022/06/10 12:26:26;;;;;;;3.20;1.38;;;24.60;50.00;;;;;;5040711;28;20572;-47
2022/06/10 12:28:55;;;;;;;2.75;1.40;;;24.60;50.00;;;;;;5041813;28;20032;-46
2022/06/10 12:31:33;;;;;;;2.30;1.20;;;24.60;50.00;;;;;;5042806;28;20508;-47
2022/06/10 12:34:20;;;;;;;2.47;1.40;;;24.60;50.00;;;;;;5042676;28;20040;-46
2022/06/10 12:37:00;;;;;;;2.58;1.48;;;24.60;50.00;;;;;;5044169;28;20032;-47
2022/06/10 12:39:42;;;;;;;3.15;1.55;;;24.60;50.10;;;;;;5043057;28;20051;-46
2022/06/10 12:42:20;;;;;;;2.40;1.40;;;24.60;50.20;;;;;;5043695;28;20078;-47
2022/06/10 12:44:52;;;;;;;3.35;1.80;;;24.60;50.30;;;;;;5043117;28;20045;-47
2022/06/10 12:47:26;;;;;;;3.00;1.77;;;24.60;51.10;;;;;;5043236;28;20355;-47
2022/06/10 12:50:01;;;;;;;2.75;1.50;;;24.70;51.70;;;;;;5041769;28;20489;-46
2022/06/10 12:52:58;;;;;;;6.28;1.80;;;24.70;51.70;;;;;;5040028;28;20021;-46
2022/06/10 12:55:35;;;;;;;4.35;1.73;;;24.60;51.80;;;;;;5040858;28;20041;-47
2022/06/10 12:58:00;;;;;;;5.18;2.28;;;24.60;52.20;;;;;;5036950;28;20485;-47
2022/06/10 13:00:33;;;;;;;3.10;1.50;;;24.70;52.50;;;;;;5022750;28;20029;-46
2022/06/10 13:03:20;;;;;;;2.72;1.55;;;24.70;52.70;;;;;;5040295;28;20017;-46
2022/06/10 13:05:48;;;;;;;4.07;2.22;;;24.70;52.40;;;;;;5042359;28;20550;-47
2022/06/10 13:08:35;;;;;;;4.05;2.10;;;24.70;52.40;;;;;;5042553;28;20029;-47
2022/06/10 13:11:02;;;;;;;3.70;2.50;;;24.70;52.40;;;;;;5043432;28;20279;-47
2022/06/10 13:13:29;;;;;;;3.63;2.58;;;24.70;53.30;;;;;;5031953;28;20033;-46
2022/06/10 13:16:16;;;;;;;4.60;2.67;;;24.70;53.30;;;;;;5041363;28;20179;-47
2022/06/10 13:18:54;;;;;;;4.65;3.10;;;24.70;52.90;;;;;;5041997;28;20032;-47
2022/06/10 13:21:29;;;;;;;4.10;2.35;;;24.80;53.20;;;;;;5033768;28;20120;-48
2022/06/10 13:23:58;;;;;;;3.80;2.50;;;24.70;52.70;;;;;;5022836;28;20060;-48
2022/06/10 13:26:25;;;;;;;4.47;2.47;;;24.80;52.80;;;;;;5022999;28;20060;-46
2022/06/10 13:28:51;;;;;;;3.97;2.42;;;24.80;52.60;;;;;;5020882;28;20072;-46
2022/06/10 13:31:20;;;;;;;3.15;2.15;;;24.80;52.20;;;;;;5023024;28;20041;-48
2022/06/10 13:33:58;;;;;;;3.45;2.08;;;24.80;52.20;;;;;;5022306;28;20037;-48
2022/06/10 13:36:37;;;;;;;3.35;2.00;;;24.80;52.20;;;;;;5022657;28;20091;-46